sensor_id;sensor_type;location;lat;lon;timestamp;temperature;humidity
20376;DHT22;10347;51.828;6.466;2023-07-31T00:00:41;18.20;99.90
20376;DHT22;10347;51.828;6.466;2023-07-31T00:03:06;18.20;99.90
20376;DHT22;10347;51.828;6.466;2023-07-31T00:05:32;18.20;99.90
20376;DHT22;10347;51.828;6.466;2023-07-31T00:07:57;18.20;99.90
20376;DHT22;10347;51.828;6.466;2023-07-31T00:10:23;18.10;99.90
20376;DHT22;10347;51.828;6.466;2023-07-31T00:12:48;18.10;99.90
20376;DHT22;10347;51.828;6.466;2023-07-31T00:15:14;18.10;99.90
20376;DHT22;10347;51.828;6.466;2023-07-31T00:17:40;18.10;99.90
20376;DHT22;10347;51.828;6.466;2023-07-31T00:20:06;18.10;99.90
20376;DHT22;10347;51.828;6.466;2023-07-31T00:22:32;18.10;99.90
20376;DHT22;10347;51.828;6.466;2023-07-31T00:24:57;18.10;99.90
20376;DHT22;10347;51.828;6.466;2023-07-31T00:27:23;18.10;99.90
20376;DHT22;10347;51.828;6.466;2023-07-31T00:29:49;18.10;99.90
20376;DHT22;10347;51.828;6.466;2023-07-31T00:32:14;18.10;99.90
20376;DHT22;10347;51.828;6.466;2023-07-31T00:34:40;18.10;99.90
20376;DHT22;10347;51.828;6.466;2023-07-31T00:37:05;18.10;99.90
20376;DHT22;10347;51.828;6.466;2023-07-31T00:39:31;18.10;99.90
20376;DHT22;10347;51.828;6.466;2023-07-31T00:41:57;18.10;99.90
20376;DHT22;10347;51.828;6.466;2023-07-31T00:44:22;18.10;99.90
20376;DHT22;10347;51.828;6.466;2023-07-31T00:46:48;18.10;99.90
20376;DHT22;10347;51.828;6.466;2023-07-31T00:49:14;18.10;99.90
20376;DHT22;10347;51.828;6.466;2023-07-31T00:51:42;18.10;99.90
20376;DHT22;10347;51.828;6.466;2023-07-31T00:54:08;18.10;99.90
20376;DHT22;10347;51.828;6.466;2023-07-31T00:56:34;18.10;99.90
20376;DHT22;10347;51.828;6.466;2023-07-31T00:59:00;18.10;99.90
20376;DHT22;10347;51.828;6.466;2023-07-31T01:01:25;18.00;99.90
20376;DHT22;10347;51.828;6.466;2023-07-31T01:03:53;18.10;99.90
20376;DHT22;10347;51.828;6.466;2023-07-31T01:06:40;18.00;99.90
20376;DHT22;10347;51.828;6.466;2023-07-31T01:11:57;18.10;99.90
20376;DHT22;10347;51.828;6.466;2023-07-31T01:14:25;18.10;99.90
20376;DHT22;10347;51.828;6.466;2023-07-31T01:16:50;18.10;99.90
20376;DHT22;10347;51.828;6.466;2023-07-31T01:19:18;18.20;99.90
20376;DHT22;10347;51.828;6.466;2023-07-31T01:22:49;18.10;99.90
20376;DHT22;10347;51.828;6.466;2023-07-31T01:27:43;18.20;99.90
20376;DHT22;10347;51.828;6.466;2023-07-31T01:30:16;18.20;99.90
20376;DHT22;10347;51.828;6.466;2023-07-31T01:32:43;18.20;99.90
20376;DHT22;10347;51.828;6.466;2023-07-31T01:35:10;18.20;99.90
20376;DHT22;10347;51.828;6.466;2023-07-31T01:37:35;18.20;99.90
20376;DHT22;10347;51.828;6.466;2023-07-31T01:40:01;18.30;99.90
20376;DHT22;10347;51.828;6.466;2023-07-31T01:42:27;18.30;99.90
20376;DHT22;10347;51.828;6.466;2023-07-31T01:44:52;18.30;99.90
20376;DHT22;10347;51.828;6.466;2023-07-31T01:47:18;18.30;99.90
20376;DHT22;10347;51.828;6.466;2023-07-31T01:49:43;18.30;99.90
20376;DHT22;10347;51.828;6.466;2023-07-31T01:52:09;18.30;99.90
20376;DHT22;10347;51.828;6.466;2023-07-31T01:54:34;18.40;99.90
20376;DHT22;10347;51.828;6.466;2023-07-31T01:57:02;18.30;99.90
20376;DHT22;10347;51.828;6.466;2023-07-31T01:59:27;18.30;99.90
20376;DHT22;10347;51.828;6.466;2023-07-31T02:01:54;18.30;99.90
20376;DHT22;10347;51.828;6.466;2023-07-31T02:04:19;18.30;99.90
20376;DHT22;10347;51.828;6.466;2023-07-31T02:06:45;18.30;99.90
20376;DHT22;10347;51.828;6.466;2023-07-31T02:09:10;18.30;99.90
20376;DHT22;10347;51.828;6.466;2023-07-31T02:11:36;18.30;99.90
20376;DHT22;10347;51.828;6.466;2023-07-31T02:14:01;18.40;99.90
20376;DHT22;10347;51.828;6.466;2023-07-31T02:16:27;18.30;99.90
20376;DHT22;10347;51.828;6.466;2023-07-31T02:18:52;18.30;99.90
20376;DHT22;10347;51.828;6.466;2023-07-31T02:21:18;18.30;99.90
20376;DHT22;10347;51.828;6.466;2023-07-31T02:23:43;18.30;99.90
20376;DHT22;10347;51.828;6.466;2023-07-31T02:26:09;18.40;99.90
20376;DHT22;10347;51.828;6.466;2023-07-31T02:28:34;18.40;99.90
20376;DHT22;10347;51.828;6.466;2023-07-31T02:31:00;18.30;99.90
20376;DHT22;10347;51.828;6.466;2023-07-31T02:33:25;18.40;99.90
20376;DHT22;10347;51.828;6.466;2023-07-31T02:35:51;18.40;99.90
20376;DHT22;10347;51.828;6.466;2023-07-31T02:38:17;18.40;99.90
20376;DHT22;10347;51.828;6.466;2023-07-31T02:40:42;18.40;99.90
20376;DHT22;10347;51.828;6.466;2023-07-31T02:43:08;18.40;99.90
20376;DHT22;10347;51.828;6.466;2023-07-31T02:45:34;18.30;99.90
20376;DHT22;10347;51.828;6.466;2023-07-31T02:48:00;18.40;99.90
20376;DHT22;10347;51.828;6.466;2023-07-31T02:50:25;18.30;99.90
20376;DHT22;10347;51.828;6.466;2023-07-31T02:52:52;18.30;99.90
20376;DHT22;10347;51.828;6.466;2023-07-31T02:55:18;18.30;99.90
20376;DHT22;10347;51.828;6.466;2023-07-31T02:57:43;18.40;99.90
20376;DHT22;10347;51.828;6.466;2023-07-31T03:00:09;18.30;99.90
20376;DHT22;10347;51.828;6.466;2023-07-31T03:02:35;18.30;99.90
20376;DHT22;10347;51.828;6.466;2023-07-31T03:05:00;18.30;99.90
20376;DHT22;10347;51.828;6.466;2023-07-31T03:07:26;18.30;99.90
20376;DHT22;10347;51.828;6.466;2023-07-31T03:09:51;18.30;99.90
20376;DHT22;10347;51.828;6.466;2023-07-31T03:12:17;18.30;99.90
20376;DHT22;10347;51.828;6.466;2023-07-31T03:14:43;18.30;99.90
20376;DHT22;10347;51.828;6.466;2023-07-31T03:17:08;18.30;99.90
20376;DHT22;10347;51.828;6.466;2023-07-31T03:19:34;18.30;99.90
20376;DHT22;10347;51.828;6.466;2023-07-31T03:21:59;18.30;99.90
20376;DHT22;10347;51.828;6.466;2023-07-31T03:24:25;18.30;99.90
20376;DHT22;10347;51.828;6.466;2023-07-31T03:26:51;18.30;99.90
20376;DHT22;10347;51.828;6.466;2023-07-31T03:29:16;18.30;99.90
20376;DHT22;10347;51.828;6.466;2023-07-31T03:31:42;18.30;99.90
20376;DHT22;10347;51.828;6.466;2023-07-31T03:34:08;18.30;99.90
20376;DHT22;10347;51.828;6.466;2023-07-31T03:36:33;18.30;99.90
20376;DHT22;10347;51.828;6.466;2023-07-31T03:38:59;18.30;99.90
20376;DHT22;10347;51.828;6.466;2023-07-31T03:41:24;18.30;99.90
20376;DHT22;10347;51.828;6.466;2023-07-31T03:43:51;18.30;99.90
20376;DHT22;10347;51.828;6.466;2023-07-31T03:46:22;18.30;99.90
20376;DHT22;10347;51.828;6.466;2023-07-31T03:48:47;18.30;99.90
20376;DHT22;10347;51.828;6.466;2023-07-31T03:51:13;18.30;99.90
20376;DHT22;10347;51.828;6.466;2023-07-31T03:53:38;18.30;99.90
20376;DHT22;10347;51.828;6.466;2023-07-31T03:56:04;18.30;99.90
20376;DHT22;10347;51.828;6.466;2023-07-31T03:58:30;18.30;99.90
20376;DHT22;10347;51.828;6.466;2023-07-31T04:00:55;18.20;99.90
20376;DHT22;10347;51.828;6.466;2023-07-31T04:03:21;18.30;99.90
20376;DHT22;10347;51.828;6.466;2023-07-31T04:05:47;18.30;99.90
20376;DHT22;10347;51.828;6.466;2023-07-31T04:08:12;18.30;99.90
20376;DHT22;10347;51.828;6.466;2023-07-31T04:10:38;18.30;99.90
20376;DHT22;10347;51.828;6.466;2023-07-31T04:13:03;18.30;99.90
20376;DHT22;10347;51.828;6.466;2023-07-31T04:15:29;18.30;99.90
20376;DHT22;10347;51.828;6.466;2023-07-31T04:17:54;18.30;99.90
20376;DHT22;10347;51.828;6.466;2023-07-31T04:20:20;18.30;99.90
20376;DHT22;10347;51.828;6.466;2023-07-31T04:22:45;18.30;99.90
20376;DHT22;10347;51.828;6.466;2023-07-31T04:25:11;18.30;99.90
20376;DHT22;10347;51.828;6.466;2023-07-31T04:27:36;18.20;99.90
20376;DHT22;10347;51.828;6.466;2023-07-31T04:30:02;18.20;99.90
20376;DHT22;10347;51.828;6.466;2023-07-31T04:32:28;18.30;99.90
20376;DHT22;10347;51.828;6.466;2023-07-31T04:34:55;18.20;99.90
20376;DHT22;10347;51.828;6.466;2023-07-31T04:37:20;18.30;99.90
20376;DHT22;10347;51.828;6.466;2023-07-31T04:39:46;18.30;99.90
20376;DHT22;10347;51.828;6.466;2023-07-31T04:42:12;18.30;99.90
20376;DHT22;10347;51.828;6.466;2023-07-31T04:44:37;18.30;99.90
20376;DHT22;10347;51.828;6.466;2023-07-31T04:47:03;18.30;99.90
20376;DHT22;10347;51.828;6.466;2023-07-31T04:49:28;18.30;99.90
20376;DHT22;10347;51.828;6.466;2023-07-31T04:51:54;18.30;99.90
20376;DHT22;10347;51.828;6.466;2023-07-31T04:54:19;18.30;99.90
20376;DHT22;10347;51.828;6.466;2023-07-31T04:56:45;18.30;99.90
20376;DHT22;10347;51.828;6.466;2023-07-31T04:59:10;18.30;99.90
20376;DHT22;10347;51.828;6.466;2023-07-31T05:01:36;18.40;99.90
20376;DHT22;10347;51.828;6.466;2023-07-31T05:04:02;18.30;99.90
20376;DHT22;10347;51.828;6.466;2023-07-31T05:06:27;18.40;99.90
20376;DHT22;10347;51.828;6.466;2023-07-31T05:08:53;18.40;99.90
20376;DHT22;10347;51.828;6.466;2023-07-31T05:11:18;18.40;99.90
20376;DHT22;10347;51.828;6.466;2023-07-31T05:13:44;18.40;99.90
20376;DHT22;10347;51.828;6.466;2023-07-31T05:16:09;18.40;99.90
20376;DHT22;10347;51.828;6.466;2023-07-31T05:18:35;18.40;99.90
20376;DHT22;10347;51.828;6.466;2023-07-31T05:21:00;18.40;99.90
20376;DHT22;10347;51.828;6.466;2023-07-31T05:23:26;18.40;99.90
20376;DHT22;10347;51.828;6.466;2023-07-31T05:25:51;18.40;99.90
20376;DHT22;10347;51.828;6.466;2023-07-31T05:28:17;18.40;99.90
20376;DHT22;10347;51.828;6.466;2023-07-31T05:30:43;18.50;99.90
20376;DHT22;10347;51.828;6.466;2023-07-31T05:33:08;18.50;99.90
20376;DHT22;10347;51.828;6.466;2023-07-31T05:35:34;18.50;99.90
20376;DHT22;10347;51.828;6.466;2023-07-31T05:37:59;18.50;99.90
20376;DHT22;10347;51.828;6.466;2023-07-31T05:40:25;18.50;99.90
20376;DHT22;10347;51.828;6.466;2023-07-31T05:42:50;18.50;99.90
20376;DHT22;10347;51.828;6.466;2023-07-31T05:45:16;18.60;99.90
20376;DHT22;10347;51.828;6.466;2023-07-31T05:47:41;18.60;99.90
20376;DHT22;10347;51.828;6.466;2023-07-31T05:50:07;18.60;99.90
20376;DHT22;10347;51.828;6.466;2023-07-31T05:52:33;18.60;99.90
20376;DHT22;10347;51.828;6.466;2023-07-31T05:54:58;18.60;99.90
20376;DHT22;10347;51.828;6.466;2023-07-31T05:57:24;18.60;99.90
20376;DHT22;10347;51.828;6.466;2023-07-31T05:59:49;18.60;99.90
20376;DHT22;10347;51.828;6.466;2023-07-31T06:02:15;18.60;99.90
20376;DHT22;10347;51.828;6.466;2023-07-31T06:04:40;18.60;99.90
20376;DHT22;10347;51.828;6.466;2023-07-31T06:07:06;18.70;99.90
20376;DHT22;10347;51.828;6.466;2023-07-31T06:09:31;18.60;99.90
20376;DHT22;10347;51.828;6.466;2023-07-31T06:11:57;18.60;99.90
20376;DHT22;10347;51.828;6.466;2023-07-31T06:14:22;18.60;99.90
20376;DHT22;10347;51.828;6.466;2023-07-31T06:16:48;18.60;99.90
20376;DHT22;10347;51.828;6.466;2023-07-31T06:19:14;18.60;99.90
20376;DHT22;10347;51.828;6.466;2023-07-31T06:21:39;18.70;99.90
20376;DHT22;10347;51.828;6.466;2023-07-31T06:24:07;18.60;99.90
20376;DHT22;10347;51.828;6.466;2023-07-31T06:26:32;18.60;99.90
20376;DHT22;10347;51.828;6.466;2023-07-31T06:28:58;18.60;99.90
20376;DHT22;10347;51.828;6.466;2023-07-31T06:31:23;18.60;99.90
20376;DHT22;10347;51.828;6.466;2023-07-31T06:33:50;18.60;99.90
20376;DHT22;10347;51.828;6.466;2023-07-31T06:36:16;18.60;99.90
20376;DHT22;10347;51.828;6.466;2023-07-31T06:38:41;18.50;99.90
20376;DHT22;10347;51.828;6.466;2023-07-31T06:41:07;18.50;99.90
20376;DHT22;10347;51.828;6.466;2023-07-31T06:43:34;18.50;99.90
20376;DHT22;10347;51.828;6.466;2023-07-31T06:46:07;18.40;99.90
20376;DHT22;10347;51.828;6.466;2023-07-31T06:48:33;18.50;99.90
20376;DHT22;10347;51.828;6.466;2023-07-31T06:51:00;18.50;99.90
20376;DHT22;10347;51.828;6.466;2023-07-31T06:53:26;18.50;99.90
20376;DHT22;10347;51.828;6.466;2023-07-31T06:55:52;18.60;99.90
20376;DHT22;10347;51.828;6.466;2023-07-31T06:58:17;18.60;99.90
20376;DHT22;10347;51.828;6.466;2023-07-31T07:00:43;18.60;99.90
20376;DHT22;10347;51.828;6.466;2023-07-31T07:03:09;18.60;99.90
20376;DHT22;10347;51.828;6.466;2023-07-31T07:05:34;18.60;99.90
20376;DHT22;10347;51.828;6.466;2023-07-31T07:08:00;18.60;99.90
20376;DHT22;10347;51.828;6.466;2023-07-31T07:10:25;18.60;99.90
20376;DHT22;10347;51.828;6.466;2023-07-31T07:12:51;18.60;99.90
20376;DHT22;10347;51.828;6.466;2023-07-31T07:15:17;18.60;99.90
20376;DHT22;10347;51.828;6.466;2023-07-31T07:17:42;18.60;99.90
20376;DHT22;10347;51.828;6.466;2023-07-31T07:20:08;18.60;99.90
20376;DHT22;10347;51.828;6.466;2023-07-31T07:22:34;18.60;99.90
20376;DHT22;10347;51.828;6.466;2023-07-31T07:24:59;18.60;99.90
20376;DHT22;10347;51.828;6.466;2023-07-31T07:27:25;18.60;99.90
20376;DHT22;10347;51.828;6.466;2023-07-31T07:29:51;18.60;99.90
20376;DHT22;10347;51.828;6.466;2023-07-31T07:32:20;18.60;99.90
20376;DHT22;10347;51.828;6.466;2023-07-31T07:34:47;18.70;99.90
20376;DHT22;10347;51.828;6.466;2023-07-31T07:37:13;18.70;99.90
20376;DHT22;10347;51.828;6.466;2023-07-31T07:39:40;18.70;99.90
20376;DHT22;10347;51.828;6.466;2023-07-31T07:42:06;18.70;99.90
20376;DHT22;10347;51.828;6.466;2023-07-31T07:44:32;18.70;99.90
20376;DHT22;10347;51.828;6.466;2023-07-31T07:46:57;18.70;99.90
20376;DHT22;10347;51.828;6.466;2023-07-31T07:49:23;18.70;99.90
20376;DHT22;10347;51.828;6.466;2023-07-31T07:51:49;18.70;99.90
20376;DHT22;10347;51.828;6.466;2023-07-31T07:54:15;18.70;99.90
20376;DHT22;10347;51.828;6.466;2023-07-31T07:56:42;18.70;99.90
20376;DHT22;10347;51.828;6.466;2023-07-31T07:59:08;18.70;99.90
20376;DHT22;10347;51.828;6.466;2023-07-31T08:01:33;18.70;99.90
20376;DHT22;10347;51.828;6.466;2023-07-31T08:03:59;18.70;99.90
20376;DHT22;10347;51.828;6.466;2023-07-31T08:06:25;18.70;99.90
20376;DHT22;10347;51.828;6.466;2023-07-31T08:08:50;18.70;99.90
20376;DHT22;10347;51.828;6.466;2023-07-31T08:11:16;18.60;99.90
20376;DHT22;10347;51.828;6.466;2023-07-31T08:13:41;18.70;99.90
20376;DHT22;10347;51.828;6.466;2023-07-31T08:16:07;18.70;99.90
20376;DHT22;10347;51.828;6.466;2023-07-31T08:18:33;18.70;99.90
20376;DHT22;10347;51.828;6.466;2023-07-31T08:20:59;18.70;99.90
20376;DHT22;10347;51.828;6.466;2023-07-31T08:23:24;18.70;99.90
20376;DHT22;10347;51.828;6.466;2023-07-31T08:25:50;18.70;99.90
20376;DHT22;10347;51.828;6.466;2023-07-31T08:28:16;18.60;99.90
20376;DHT22;10347;51.828;6.466;2023-07-31T08:30:42;18.70;99.90
20376;DHT22;10347;51.828;6.466;2023-07-31T08:33:07;18.70;99.90
20376;DHT22;10347;51.828;6.466;2023-07-31T08:35:33;18.70;99.90
20376;DHT22;10347;51.828;6.466;2023-07-31T08:37:59;18.70;99.90
20376;DHT22;10347;51.828;6.466;2023-07-31T08:40:24;18.70;99.90
20376;DHT22;10347;51.828;6.466;2023-07-31T08:42:53;18.70;99.90
20376;DHT22;10347;51.828;6.466;2023-07-31T08:45:19;18.70;99.90
20376;DHT22;10347;51.828;6.466;2023-07-31T08:47:47;18.70;99.90
20376;DHT22;10347;51.828;6.466;2023-07-31T08:50:14;18.80;99.90
20376;DHT22;10347;51.828;6.466;2023-07-31T08:52:40;18.70;99.90
20376;DHT22;10347;51.828;6.466;2023-07-31T08:55:07;18.70;99.90
20376;DHT22;10347;51.828;6.466;2023-07-31T08:57:35;18.70;99.90
20376;DHT22;10347;51.828;6.466;2023-07-31T09:00:05;18.70;99.90
20376;DHT22;10347;51.828;6.466;2023-07-31T09:02:48;18.70;99.90
20376;DHT22;10347;51.828;6.466;2023-07-31T09:05:17;18.70;99.90
20376;DHT22;10347;51.828;6.466;2023-07-31T09:07:44;18.70;99.90
20376;DHT22;10347;51.828;6.466;2023-07-31T09:10:11;18.80;99.90
20376;DHT22;10347;51.828;6.466;2023-07-31T09:12:38;18.80;99.90
20376;DHT22;10347;51.828;6.466;2023-07-31T09:15:04;18.80;99.90
20376;DHT22;10347;51.828;6.466;2023-07-31T09:17:35;18.80;99.90
20376;DHT22;10347;51.828;6.466;2023-07-31T09:20:13;18.80;99.90
20376;DHT22;10347;51.828;6.466;2023-07-31T09:22:40;18.80;99.90
20376;DHT22;10347;51.828;6.466;2023-07-31T09:25:18;18.80;99.90
20376;DHT22;10347;51.828;6.466;2023-07-31T09:28:05;18.90;99.90
20376;DHT22;10347;51.828;6.466;2023-07-31T09:30:31;18.90;99.90
20376;DHT22;10347;51.828;6.466;2023-07-31T09:33:02;18.80;99.90
20376;DHT22;10347;51.828;6.466;2023-07-31T09:37:55;18.90;99.90
20376;DHT22;10347;51.828;6.466;2023-07-31T09:40:33;19.00;99.90
20376;DHT22;10347;51.828;6.466;2023-07-31T09:43:04;18.90;99.90
20376;DHT22;10347;51.828;6.466;2023-07-31T09:45:33;18.90;99.90
20376;DHT22;10347;51.828;6.466;2023-07-31T09:47:59;18.90;99.90
20376;DHT22;10347;51.828;6.466;2023-07-31T09:50:25;18.90;99.90
20376;DHT22;10347;51.828;6.466;2023-07-31T09:52:51;18.90;99.90
20376;DHT22;10347;51.828;6.466;2023-07-31T09:55:18;18.90;99.90
20376;DHT22;10347;51.828;6.466;2023-07-31T09:57:48;18.90;99.90
20376;DHT22;10347;51.828;6.466;2023-07-31T10:00:16;18.90;99.90
20376;DHT22;10347;51.828;6.466;2023-07-31T10:02:44;18.90;99.90
20376;DHT22;10347;51.828;6.466;2023-07-31T10:05:13;18.90;99.90
20376;DHT22;10347;51.828;6.466;2023-07-31T10:07:43;18.90;99.90
20376;DHT22;10347;51.828;6.466;2023-07-31T10:10:09;18.90;99.90
20376;DHT22;10347;51.828;6.466;2023-07-31T10:12:35;18.90;99.90
20376;DHT22;10347;51.828;6.466;2023-07-31T10:15:02;18.90;99.90
20376;DHT22;10347;51.828;6.466;2023-07-31T10:17:30;19.00;99.90
20376;DHT22;10347;51.828;6.466;2023-07-31T10:19:58;19.00;99.90
20376;DHT22;10347;51.828;6.466;2023-07-31T10:22:29;19.00;99.90
20376;DHT22;10347;51.828;6.466;2023-07-31T10:24:58;19.00;99.90
20376;DHT22;10347;51.828;6.466;2023-07-31T10:27:24;18.90;99.90
20376;DHT22;10347;51.828;6.466;2023-07-31T10:29:50;18.90;99.90
20376;DHT22;10347;51.828;6.466;2023-07-31T10:32:17;19.00;99.90
20376;DHT22;10347;51.828;6.466;2023-07-31T10:34:44;19.00;99.90
20376;DHT22;10347;51.828;6.466;2023-07-31T10:37:27;18.90;99.90
20376;DHT22;10347;51.828;6.466;2023-07-31T10:42:35;19.00;99.90
20376;DHT22;10347;51.828;6.466;2023-07-31T10:45:10;19.00;99.90
20376;DHT22;10347;51.828;6.466;2023-07-31T10:47:43;19.00;99.90
20376;DHT22;10347;51.828;6.466;2023-07-31T10:50:16;19.00;99.90
20376;DHT22;10347;51.828;6.466;2023-07-31T10:52:47;19.10;99.90
20376;DHT22;10347;51.828;6.466;2023-07-31T10:55:28;19.10;99.90
20376;DHT22;10347;51.828;6.466;2023-07-31T10:57:55;19.10;99.90
20376;DHT22;10347;51.828;6.466;2023-07-31T11:00:28;19.10;99.90
20376;DHT22;10347;51.828;6.466;2023-07-31T11:03:18;19.10;99.90
20376;DHT22;10347;51.828;6.466;2023-07-31T11:05:50;19.20;99.90
20376;DHT22;10347;51.828;6.466;2023-07-31T11:10:43;19.20;99.90
20376;DHT22;10347;51.828;6.466;2023-07-31T11:13:09;19.30;99.90
20376;DHT22;10347;51.828;6.466;2023-07-31T11:15:34;19.40;99.90
20376;DHT22;10347;51.828;6.466;2023-07-31T11:18:00;19.40;99.90
20376;DHT22;10347;51.828;6.466;2023-07-31T11:20:32;19.40;99.90
20376;DHT22;10347;51.828;6.466;2023-07-31T11:23:02;19.50;99.90
20376;DHT22;10347;51.828;6.466;2023-07-31T11:25:32;19.60;99.90
20376;DHT22;10347;51.828;6.466;2023-07-31T11:28:05;19.60;99.90
20376;DHT22;10347;51.828;6.466;2023-07-31T11:30:31;19.70;99.90
20376;DHT22;10347;51.828;6.466;2023-07-31T11:32:57;19.70;99.90
20376;DHT22;10347;51.828;6.466;2023-07-31T11:35:23;19.80;99.90
20376;DHT22;10347;51.828;6.466;2023-07-31T11:37:48;19.80;99.90
20376;DHT22;10347;51.828;6.466;2023-07-31T11:40:15;19.80;99.90
20376;DHT22;10347;51.828;6.466;2023-07-31T11:42:41;19.80;99.90
20376;DHT22;10347;51.828;6.466;2023-07-31T11:45:09;19.80;99.90
20376;DHT22;10347;51.828;6.466;2023-07-31T11:47:36;19.90;99.90
20376;DHT22;10347;51.828;6.466;2023-07-31T11:50:03;19.90;99.90
20376;DHT22;10347;51.828;6.466;2023-07-31T11:52:36;19.90;99.90
20376;DHT22;10347;51.828;6.466;2023-07-31T11:55:03;20.00;99.90
20376;DHT22;10347;51.828;6.466;2023-07-31T11:57:29;19.90;99.90
20376;DHT22;10347;51.828;6.466;2023-07-31T11:59:56;20.00;99.90
20376;DHT22;10347;51.828;6.466;2023-07-31T12:02:23;19.90;99.90
20376;DHT22;10347;51.828;6.466;2023-07-31T12:04:49;20.00;99.90
20376;DHT22;10347;51.828;6.466;2023-07-31T12:07:15;20.00;99.90
20376;DHT22;10347;51.828;6.466;2023-07-31T12:09:56;20.00;99.90
20376;DHT22;10347;51.828;6.466;2023-07-31T12:12:22;20.00;99.90
20376;DHT22;10347;51.828;6.466;2023-07-31T12:14:49;20.00;99.90
20376;DHT22;10347;51.828;6.466;2023-07-31T12:17:16;20.10;99.90
20376;DHT22;10347;51.828;6.466;2023-07-31T12:19:42;20.10;99.90
20376;DHT22;10347;51.828;6.466;2023-07-31T12:22:14;20.10;99.90
20376;DHT22;10347;51.828;6.466;2023-07-31T12:24:42;20.20;99.90
20376;DHT22;10347;51.828;6.466;2023-07-31T12:27:14;20.20;99.90
20376;DHT22;10347;51.828;6.466;2023-07-31T12:29:41;20.20;99.90
20376;DHT22;10347;51.828;6.466;2023-07-31T12:32:24;20.20;99.90
20376;DHT22;10347;51.828;6.466;2023-07-31T12:34:55;20.20;99.90
20376;DHT22;10347;51.828;6.466;2023-07-31T12:37:24;20.30;99.90
20376;DHT22;10347;51.828;6.466;2023-07-31T12:39:49;20.30;99.90
20376;DHT22;10347;51.828;6.466;2023-07-31T12:42:17;20.20;99.90
20376;DHT22;10347;51.828;6.466;2023-07-31T12:44:43;20.30;99.90
20376;DHT22;10347;51.828;6.466;2023-07-31T12:47:08;20.30;99.90
20376;DHT22;10347;51.828;6.466;2023-07-31T12:49:34;20.30;99.90
20376;DHT22;10347;51.828;6.466;2023-07-31T12:51:59;20.40;99.90
20376;DHT22;10347;51.828;6.466;2023-07-31T12:54:25;20.40;99.90
20376;DHT22;10347;51.828;6.466;2023-07-31T12:56:50;20.40;99.90
20376;DHT22;10347;51.828;6.466;2023-07-31T12:59:16;20.40;99.90
20376;DHT22;10347;51.828;6.466;2023-07-31T13:01:41;20.40;99.90
20376;DHT22;10347;51.828;6.466;2023-07-31T13:04:07;20.40;99.90
20376;DHT22;10347;51.828;6.466;2023-07-31T13:06:33;20.40;99.90
20376;DHT22;10347;51.828;6.466;2023-07-31T13:08:59;20.50;99.90
20376;DHT22;10347;51.828;6.466;2023-07-31T13:11:25;20.50;99.90
20376;DHT22;10347;51.828;6.466;2023-07-31T13:13:50;20.50;99.90
20376;DHT22;10347;51.828;6.466;2023-07-31T13:16:16;20.50;99.90
20376;DHT22;10347;51.828;6.466;2023-07-31T13:18:41;20.50;99.90
20376;DHT22;10347;51.828;6.466;2023-07-31T13:21:07;20.40;99.90
20376;DHT22;10347;51.828;6.466;2023-07-31T13:23:32;20.50;99.90
20376;DHT22;10347;51.828;6.466;2023-07-31T13:25:58;20.50;99.90
20376;DHT22;10347;51.828;6.466;2023-07-31T13:28:23;20.50;99.90
20376;DHT22;10347;51.828;6.466;2023-07-31T13:30:49;20.50;99.90
20376;DHT22;10347;51.828;6.466;2023-07-31T13:33:14;20.50;99.90
20376;DHT22;10347;51.828;6.466;2023-07-31T13:35:40;20.50;99.90
20376;DHT22;10347;51.828;6.466;2023-07-31T13:38:05;20.50;99.90
20376;DHT22;10347;51.828;6.466;2023-07-31T13:40:31;20.50;99.90
20376;DHT22;10347;51.828;6.466;2023-07-31T13:42:56;20.50;99.90
20376;DHT22;10347;51.828;6.466;2023-07-31T13:45:22;20.50;99.90
20376;DHT22;10347;51.828;6.466;2023-07-31T13:47:49;20.50;99.90
20376;DHT22;10347;51.828;6.466;2023-07-31T13:50:15;20.50;99.90
20376;DHT22;10347;51.828;6.466;2023-07-31T13:52:42;20.60;99.90
20376;DHT22;10347;51.828;6.466;2023-07-31T13:55:07;20.50;99.90
20376;DHT22;10347;51.828;6.466;2023-07-31T13:57:33;20.50;99.90
20376;DHT22;10347;51.828;6.466;2023-07-31T14:00:00;20.50;99.90
20376;DHT22;10347;51.828;6.466;2023-07-31T14:02:25;20.50;99.90
20376;DHT22;10347;51.828;6.466;2023-07-31T14:04:51;20.60;99.90
20376;DHT22;10347;51.828;6.466;2023-07-31T14:07:16;20.60;99.90
20376;DHT22;10347;51.828;6.466;2023-07-31T14:09:43;20.60;99.90
20376;DHT22;10347;51.828;6.466;2023-07-31T14:12:08;20.60;99.90
20376;DHT22;10347;51.828;6.466;2023-07-31T14:14:34;20.60;99.90
20376;DHT22;10347;51.828;6.466;2023-07-31T14:17:00;20.60;99.90
20376;DHT22;10347;51.828;6.466;2023-07-31T14:19:25;20.60;99.90
20376;DHT22;10347;51.828;6.466;2023-07-31T14:21:51;20.50;99.90
20376;DHT22;10347;51.828;6.466;2023-07-31T14:24:16;20.60;99.90
20376;DHT22;10347;51.828;6.466;2023-07-31T14:26:42;20.60;99.90
20376;DHT22;10347;51.828;6.466;2023-07-31T14:29:07;20.60;99.90
20376;DHT22;10347;51.828;6.466;2023-07-31T14:31:33;20.60;99.90
20376;DHT22;10347;51.828;6.466;2023-07-31T14:33:58;20.60;99.90
20376;DHT22;10347;51.828;6.466;2023-07-31T14:36:24;20.60;99.90
20376;DHT22;10347;51.828;6.466;2023-07-31T14:38:49;20.50;99.90
20376;DHT22;10347;51.828;6.466;2023-07-31T14:41:15;20.60;99.90
20376;DHT22;10347;51.828;6.466;2023-07-31T14:43:40;20.60;99.90
20376;DHT22;10347;51.828;6.466;2023-07-31T14:46:06;20.60;99.90
20376;DHT22;10347;51.828;6.466;2023-07-31T14:48:31;20.60;99.90
20376;DHT22;10347;51.828;6.466;2023-07-31T14:50:57;20.60;99.90
20376;DHT22;10347;51.828;6.466;2023-07-31T14:53:22;20.60;99.90
20376;DHT22;10347;51.828;6.466;2023-07-31T14:55:48;20.60;99.90
20376;DHT22;10347;51.828;6.466;2023-07-31T14:58:13;20.50;99.90
20376;DHT22;10347;51.828;6.466;2023-07-31T15:00:40;20.60;99.90
20376;DHT22;10347;51.828;6.466;2023-07-31T15:03:05;20.60;99.90
20376;DHT22;10347;51.828;6.466;2023-07-31T15:05:31;20.50;99.90
20376;DHT22;10347;51.828;6.466;2023-07-31T15:07:56;20.50;99.90
20376;DHT22;10347;51.828;6.466;2023-07-31T15:10:22;20.40;99.90
20376;DHT22;10347;51.828;6.466;2023-07-31T15:12:47;20.50;99.90
20376;DHT22;10347;51.828;6.466;2023-07-31T15:15:14;20.50;99.90
20376;DHT22;10347;51.828;6.466;2023-07-31T15:17:40;20.50;99.90
20376;DHT22;10347;51.828;6.466;2023-07-31T15:20:06;20.50;99.90
20376;DHT22;10347;51.828;6.466;2023-07-31T15:22:32;20.50;99.90
20376;DHT22;10347;51.828;6.466;2023-07-31T15:24:57;20.50;99.90
20376;DHT22;10347;51.828;6.466;2023-07-31T15:27:23;20.50;99.90
20376;DHT22;10347;51.828;6.466;2023-07-31T15:29:49;20.40;99.90
20376;DHT22;10347;51.828;6.466;2023-07-31T15:32:16;20.40;99.90
20376;DHT22;10347;51.828;6.466;2023-07-31T15:34:43;20.40;99.90
20376;DHT22;10347;51.828;6.466;2023-07-31T15:37:09;20.40;99.90
20376;DHT22;10347;51.828;6.466;2023-07-31T15:39:34;20.40;99.90